Time;durP1;ratioP1;P1;durP2;ratioP2;P2;SDS_P1;SDS_P2;PMS_P1;PMS_P2;Temp;Humidity;BMP_temperature;BMP_pressure;BME280_temperature;BME280_humidity;BME280_pressure;Samples;Min_cycle;Max_cycle;Signal;HPM_P1;HPM_P2
2024/01/20 00:01:44;;;;;;;20.08;12.85;;;0.40;99.90;;;;;;5091629;28;20579;-61
2024/01/20 00:04:10;;;;;;;19.85;13.20;;;0.40;99.90;;;;;;5091151;28;20038;-61
2024/01/20 00:06:35;;;;;;;21.65;13.68;;;0.40;99.90;;;;;;5091322;28;20395;-62
2024/01/20 00:09:01;;;;;;;17.83;12.43;;;0.40;99.90;;;;;;5092252;28;20171;-63
2024/01/20 00:11:26;;;;;;;22.85;13.45;;;0.30;99.90;;;;;;5091171;28;20127;-61
2024/01/20 00:13:52;;;;;;;21.95;13.05;;;0.30;99.90;;;;;;5092183;28;20383;-62
2024/01/20 00:16:18;;;;;;;18.45;12.77;;;0.30;99.90;;;;;;5073948;28;20052;-62
2024/01/20 00:18:43;;;;;;;18.13;13.05;;;0.30;99.90;;;;;;5091125;28;20101;-62
2024/01/20 00:21:09;;;;;;;19.00;13.52;;;0.30;99.90;;;;;;5091061;28;20083;-62
2024/01/20 00:23:37;;;;;;;21.85;13.88;;;0.30;99.90;;;;;;5090809;28;20083;-62
2024/01/20 00:26:03;;;;;;;19.80;13.55;;;0.30;99.90;;;;;;5090501;28;20532;-62
2024/01/20 00:28:28;;;;;;;21.88;14.40;;;0.30;99.90;;;;;;5090790;28;20043;-62
2024/01/20 00:30:54;;;;;;;20.27;14.93;;;0.20;99.90;;;;;;5090734;28;20043;-62
2024/01/20 00:33:20;;;;;;;22.23;15.10;;;0.20;99.90;;;;;;5091514;28;20028;-61
2024/01/20 00:35:47;;;;;;;23.65;15.20;;;0.20;99.90;;;;;;5092477;28;20071;-62
2024/01/20 00:38:13;;;;;;;20.48;14.55;;;0.20;99.90;;;;;;5090376;28;20076;-62
2024/01/20 00:40:39;;;;;;;20.98;13.95;;;0.20;99.90;;;;;;5090622;28;20514;-61
2024/01/20 00:43:05;;;;;;;21.45;14.20;;;0.30;99.90;;;;;;5090553;28;20064;-62
2024/01/20 00:45:30;;;;;;;21.67;14.88;;;0.30;99.90;;;;;;5073098;28;20052;-62
2024/01/20 00:47:56;;;;;;;22.60;14.63;;;0.20;99.90;;;;;;5090551;28;20056;-62
2024/01/20 00:50:22;;;;;;;21.08;15.02;;;0.20;99.90;;;;;;5091492;28;20051;-61
2024/01/20 00:52:48;;;;;;;24.73;16.40;;;0.20;99.90;;;;;;5090503;28;20044;-61
2024/01/20 00:55:14;;;;;;;21.95;15.35;;;0.10;99.90;;;;;;5081576;28;20036;-61
2024/01/20 00:57:39;;;;;;;24.75;15.27;;;0.10;99.90;;;;;;5071450;28;20131;-61
2024/01/20 01:00:08;;;;;;;21.27;15.38;;;0.20;99.90;;;;;;5089434;28;20137;-62
2024/01/20 01:02:35;;;;;;;23.02;14.68;;;0.10;99.90;;;;;;5090229;28;20059;-62
2024/01/20 01:05:01;;;;;;;23.58;16.40;;;0.10;99.90;;;;;;5072215;28;20095;-61
2024/01/20 01:07:26;;;;;;;23.67;16.00;;;0.10;99.90;;;;;;5089947;28;20572;-62
2024/01/20 01:09:52;;;;;;;24.25;15.55;;;0.10;99.90;;;;;;5090477;28;20195;-61
2024/01/20 01:12:18;;;;;;;23.05;16.20;;;0.10;99.90;;;;;;5091377;28;20078;-62
2024/01/20 01:14:43;;;;;;;23.73;16.42;;;0.00;99.90;;;;;;5089599;28;20047;-62
2024/01/20 01:17:09;;;;;;;24.40;16.95;;;0.00;99.90;;;;;;5089632;28;20036;-61
2024/01/20 01:19:35;;;;;;;23.25;16.55;;;0.00;99.90;;;;;;5089965;28;20483;-62
2024/01/20 01:22:00;;;;;;;25.00;17.08;;;0.00;99.90;;;;;;5089718;28;20044;-61
2024/01/20 01:24:26;;;;;;;23.95;16.65;;;0.00;99.90;;;;;;5090920;28;20486;-61
2024/01/20 01:26:52;;;;;;;22.98;17.30;;;0.00;99.90;;;;;;5091420;28;20119;-61
2024/01/20 01:29:17;;;;;;;26.80;17.55;;;0.00;99.90;;;;;;5090804;28;20043;-61
2024/01/20 01:31:46;;;;;;;27.42;17.88;;;0.00;99.90;;;;;;5089743;28;20125;-61
2024/01/20 01:34:11;;;;;;;25.98;18.48;;;0.00;99.90;;;;;;5089465;28;20071;-62
2024/01/20 01:36:37;;;;;;;26.65;18.45;;;0.00;99.90;;;;;;5089611;28;20078;-61
2024/01/20 01:39:03;;;;;;;31.60;18.15;;;0.00;99.90;;;;;;5089493;28;20044;-61
2024/01/20 01:41:29;;;;;;;26.63;18.42;;;0.00;99.90;;;;;;5070710;28;20037;-62
2024/01/20 01:43:54;;;;;;;29.05;19.70;;;0.00;99.90;;;;;;5068879;28;20373;-61
2024/01/20 01:46:20;;;;;;;28.05;18.60;;;0.00;99.90;;;;;;5069148;28;20089;-62
2024/01/20 01:48:46;;;;;;;24.08;18.38;;;0.00;99.90;;;;;;5069395;28;20116;-61
2024/01/20 01:51:12;;;;;;;24.63;19.13;;;0.00;99.90;;;;;;5070251;28;20043;-61
2024/01/20 01:53:39;;;;;;;28.48;19.17;;;0.00;99.90;;;;;;5070503;28;20504;-62
2024/01/20 01:56:06;;;;;;;26.88;18.55;;;0.00;99.90;;;;;;5076011;28;20059;-62
2024/01/20 01:58:32;;;;;;;33.63;20.38;;;0.00;99.90;;;;;;5090476;28;20470;-61
2024/01/20 02:00:58;;;;;;;26.85;18.65;;;0.00;99.90;;;;;;5090766;28;20036;-61
2024/01/20 02:03:24;;;;;;;29.70;20.35;;;0.00;99.90;;;;;;5090406;28;20032;-61
2024/01/20 02:05:50;;;;;;;26.45;19.27;;;0.00;99.90;;;;;;5089520;28;20107;-62
2024/01/20 02:08:16;;;;;;;28.65;19.02;;;0.10;99.90;;;;;;5090689;28;20534;-61
2024/01/20 02:10:45;;;;;;;26.95;19.42;;;0.10;99.90;;;;;;5090653;28;20036;-61
2024/01/20 02:13:11;;;;;;;26.80;20.08;;;0.10;99.90;;;;;;5090590;28;20101;-62
2024/01/20 02:15:38;;;;;;;30.42;19.58;;;0.00;99.90;;;;;;5090467;28;20449;-61
2024/01/20 02:18:04;;;;;;;27.23;19.15;;;0.00;99.90;;;;;;5090507;28;20126;-62
2024/01/20 02:20:29;;;;;;;31.58;20.38;;;0.00;99.90;;;;;;5088800;28;20443;-61
2024/01/20 02:22:55;;;;;;;27.85;19.67;;;0.00;99.90;;;;;;5090668;28;20036;-61
2024/01/20 02:25:21;;;;;;;27.20;19.92;;;0.00;99.90;;;;;;5088997;28;20465;-62
2024/01/20 02:27:46;;;;;;;29.67;21.13;;;0.00;99.90;;;;;;5089382;28;20498;-62
2024/01/20 02:30:12;;;;;;;27.98;19.50;;;0.00;99.90;;;;;;5089156;28;20047;-62
2024/01/20 02:32:38;;;;;;;28.52;19.42;;;0.00;99.90;;;;;;5090084;28;20067;-62
2024/01/20 02:35:04;;;;;;;25.45;19.85;;;0.00;99.90;;;;;;5090412;28;20123;-62
2024/01/20 02:37:30;;;;;;;31.02;20.13;;;-0.10;99.90;;;;;;5090056;28;20472;-62
2024/01/20 02:39:58;;;;;;;29.10;20.33;;;-0.10;99.90;;;;;;5089422;28;20119;-62
2024/01/20 02:42:24;;;;;;;26.83;19.95;;;-0.10;99.90;;;;;;5072371;28;20471;-62
2024/01/20 02:44:50;;;;;;;29.77;20.38;;;-0.10;99.90;;;;;;5088841;28;20085;-61
2024/01/20 02:47:17;;;;;;;26.67;19.60;;;-0.10;99.90;;;;;;5090278;28;20111;-62
2024/01/20 02:49:42;;;;;;;28.73;19.73;;;-0.20;99.90;;;;;;5089918;28;20524;-62
2024/01/20 02:52:08;;;;;;;28.67;19.90;;;-0.20;99.90;;;;;;5090237;28;20119;-61
2024/01/20 02:54:33;;;;;;;29.50;20.25;;;-0.20;99.90;;;;;;5089880;28;20044;-62
2024/01/20 02:56:59;;;;;;;33.17;20.50;;;-0.20;99.90;;;;;;5091840;28;20068;-62
2024/01/20 02:59:25;;;;;;;33.65;21.08;;;-0.20;99.90;;;;;;5092509;28;20550;-61
2024/01/20 03:01:50;;;;;;;29.98;19.63;;;-0.30;99.90;;;;;;5093668;28;20032;-62
2024/01/20 03:04:16;;;;;;;30.73;19.88;;;-0.30;99.90;;;;;;5092281;28;20040;-61
2024/01/20 03:06:42;;;;;;;31.40;20.40;;;-0.30;99.90;;;;;;5092066;28;20075;-61
2024/01/20 03:09:07;;;;;;;34.40;20.88;;;-0.40;99.90;;;;;;5075175;28;20071;-61
2024/01/20 03:11:35;;;;;;;31.23;20.25;;;-0.40;99.90;;;;;;5074165;28;20044;-61
2024/01/20 03:14:01;;;;;;;29.00;19.77;;;-0.40;99.90;;;;;;5065404;28;20048;-62
2024/01/20 03:16:27;;;;;;;30.00;20.10;;;-0.40;99.90;;;;;;5072069;28;20051;-61
2024/01/20 03:18:52;;;;;;;33.00;20.58;;;-0.40;99.90;;;;;;5073115;28;20479;-62
2024/01/20 03:21:18;;;;;;;32.25;21.27;;;-0.50;99.90;;;;;;5073160;28;20047;-62
2024/01/20 03:23:44;;;;;;;35.67;21.30;;;-0.50;99.90;;;;;;5072777;28;20037;-62
2024/01/20 03:26:10;;;;;;;30.98;20.45;;;-0.50;99.90;;;;;;5073054;28;20048;-62
2024/01/20 03:28:40;;;;;;;34.65;20.60;;;-0.60;99.90;;;;;;5073854;28;20051;-62
2024/01/20 03:31:06;;;;;;;33.15;20.00;;;-0.60;99.90;;;;;;5091980;28;20044;-61
2024/01/20 03:33:32;;;;;;;32.45;20.70;;;-0.60;99.90;;;;;;5092974;28;20040;-62
2024/01/20 03:35:57;;;;;;;31.95;21.05;;;-0.50;99.90;;;;;;5093242;28;20035;-62
2024/01/20 03:38:23;;;;;;;30.92;20.85;;;-0.60;99.90;;;;;;5092970;28;20039;-62
2024/01/20 03:40:49;;;;;;;37.13;22.70;;;-0.60;99.90;;;;;;5091447;28;20046;-62
2024/01/20 03:43:14;;;;;;;32.40;22.92;;;-0.50;99.90;;;;;;5091679;28;20055;-62
2024/01/20 03:45:41;;;;;;;33.92;21.33;;;-0.50;99.90;;;;;;5091477;28;20044;-62
2024/01/20 03:48:07;;;;;;;43.95;21.38;;;-0.50;99.90;;;;;;5091566;28;20044;-62
2024/01/20 03:50:32;;;;;;;35.00;22.25;;;-0.50;99.90;;;;;;5092851;28;20054;-62
2024/01/20 03:52:58;;;;;;;40.22;22.23;;;-0.50;99.90;;;;;;5091422;28;20042;-62
2024/01/20 03:55:24;;;;;;;33.97;20.63;;;-0.50;99.90;;;;;;5091452;28;20036;-63
2024/01/20 03:57:49;;;;;;;36.40;22.33;;;-0.50;99.90;;;;;;5091111;28;20055;-62
2024/01/20 04:00:15;;;;;;;37.92;22.35;;;-0.40;99.90;;;;;;5092727;28;20054;-62
2024/01/20 04:02:41;;;;;;;36.05;22.48;;;-0.40;99.90;;;;;;5091326;28;20044;-61
2024/01/20 04:05:07;;;;;;;42.35;24.20;;;-0.40;99.90;;;;;;5091076;28;20122;-62
2024/01/20 04:07:32;;;;;;;36.92;22.58;;;-0.40;99.90;;;;;;5090028;28;20414;-61
2024/01/20 04:09:58;;;;;;;39.58;23.17;;;-0.50;99.90;;;;;;5092416;28;20063;-62
2024/01/20 04:12:24;;;;;;;40.25;22.48;;;-0.50;99.90;;;;;;5092437;28;20645;-62
2024/01/20 04:14:49;;;;;;;38.83;21.33;;;-0.50;99.90;;;;;;5092209;28;20067;-62
2024/01/20 04:17:15;;;;;;;38.47;23.80;;;-0.50;99.90;;;;;;5092270;28;20074;-62
2024/01/20 04:19:41;;;;;;;36.80;22.30;;;-0.50;99.90;;;;;;5073731;28;20130;-62
2024/01/20 04:22:07;;;;;;;39.70;22.98;;;-0.50;99.90;;;;;;5092214;28;20036;-63
2024/01/20 04:24:32;;;;;;;37.10;21.98;;;-0.60;99.90;;;;;;5092224;28;20051;-62
2024/01/20 04:26:58;;;;;;;39.72;23.13;;;-0.60;99.90;;;;;;5090678;28;20076;-62
2024/01/20 04:29:23;;;;;;;41.90;23.52;;;-0.60;99.90;;;;;;5090864;28;20425;-62
2024/01/20 04:31:49;;;;;;;42.47;22.63;;;-0.60;99.90;;;;;;5091807;28;20040;-63
2024/01/20 04:34:15;;;;;;;38.90;23.15;;;-0.60;99.90;;;;;;5090621;28;20063;-63
2024/01/20 04:36:40;;;;;;;42.85;22.33;;;-0.60;99.90;;;;;;5090772;28;20054;-63
2024/01/20 04:39:06;;;;;;;40.50;23.70;;;-0.60;99.90;;;;;;5091880;28;20074;-62
2024/01/20 04:41:32;;;;;;;42.38;23.73;;;-0.60;99.90;;;;;;5092185;28;20426;-62
2024/01/20 04:43:57;;;;;;;43.65;23.55;;;-0.60;99.90;;;;;;5090407;28;20066;-62
2024/01/20 04:46:23;;;;;;;42.15;24.55;;;-0.70;99.90;;;;;;5090465;28;20039;-62
2024/01/20 04:48:49;;;;;;;42.47;24.80;;;-0.70;99.90;;;;;;5090351;28;20078;-62
2024/01/20 04:51:14;;;;;;;44.08;24.77;;;-0.70;99.90;;;;;;5091810;28;20431;-62
2024/01/20 04:53:40;;;;;;;46.90;24.40;;;-0.70;99.90;;;;;;5084726;28;20407;-62
2024/01/20 04:56:06;;;;;;;42.75;24.73;;;-0.70;99.90;;;;;;5069956;28;20045;-61
2024/01/20 04:58:32;;;;;;;45.38;24.73;;;-0.70;99.90;;;;;;5070224;28;20086;-62
2024/01/20 05:00:57;;;;;;;46.95;25.90;;;-0.70;99.90;;;;;;5070952;28;20044;-63
2024/01/20 05:03:23;;;;;;;46.17;23.77;;;-0.80;99.90;;;;;;5069733;28;20037;-62
2024/01/20 05:05:49;;;;;;;42.53;23.98;;;-0.80;99.90;;;;;;5071179;28;20036;-62
2024/01/20 05:08:15;;;;;;;41.80;23.98;;;-0.80;99.90;;;;;;5069573;28;20123;-62
2024/01/20 05:10:41;;;;;;;41.58;23.63;;;-0.80;99.90;;;;;;5069841;28;20355;-62
2024/01/20 05:13:06;;;;;;;43.15;23.50;;;-0.80;99.90;;;;;;5070884;28;20047;-62
2024/01/20 05:15:32;;;;;;;47.72;24.40;;;-0.80;99.90;;;;;;5069730;28;20056;-62
2024/01/20 05:17:58;;;;;;;46.90;25.58;;;-0.80;99.90;;;;;;5071095;28;20032;-63
2024/01/20 05:20:24;;;;;;;48.58;25.15;;;-0.80;99.90;;;;;;5069564;28;20048;-62
2024/01/20 05:22:49;;;;;;;47.28;24.70;;;-0.80;99.90;;;;;;5069928;28;20072;-62
2024/01/20 05:25:15;;;;;;;41.20;24.73;;;-0.80;99.90;;;;;;5069256;28;20041;-62
2024/01/20 05:27:41;;;;;;;39.58;22.77;;;-0.80;99.90;;;;;;5069648;28;20036;-62
2024/01/20 05:30:07;;;;;;;43.47;23.17;;;-0.80;99.90;;;;;;5070813;28;20101;-61
2024/01/20 05:32:33;;;;;;;44.13;23.60;;;-0.80;99.90;;;;;;5070878;28;20033;-63
2024/01/20 05:34:59;;;;;;;44.08;23.60;;;-0.90;99.90;;;;;;5069500;28;20090;-62
2024/01/20 05:37:25;;;;;;;44.85;24.02;;;-0.80;99.90;;;;;;5068026;28;20037;-62
2024/01/20 05:39:51;;;;;;;45.25;25.35;;;-0.80;99.90;;;;;;5070794;28;20036;-62
2024/01/20 05:42:17;;;;;;;44.13;24.42;;;-0.80;99.90;;;;;;5070404;28;20044;-62
2024/01/20 05:44:43;;;;;;;44.50;23.60;;;-0.80;99.90;;;;;;5069275;28;20398;-62
2024/01/20 05:47:09;;;;;;;46.45;24.67;;;-0.90;99.90;;;;;;5069151;28;20028;-61
2024/01/20 05:49:35;;;;;;;42.83;23.83;;;-0.80;99.90;;;;;;5069422;28;20476;-62
2024/01/20 05:52:01;;;;;;;42.83;24.00;;;-0.80;99.90;;;;;;5069377;28;20488;-62
2024/01/20 05:54:26;;;;;;;44.65;23.50;;;-0.90;99.90;;;;;;5052228;28;20052;-62
2024/01/20 05:56:52;;;;;;;39.58;21.85;;;-0.80;99.90;;;;;;5070509;28;20032;-62
2024/01/20 05:59:18;;;;;;;43.55;23.02;;;-0.80;99.90;;;;;;5068728;28;20052;-62
2024/01/20 06:01:50;;;;;;;39.08;23.20;;;-0.80;99.90;;;;;;5069142;28;20036;-62
2024/01/20 06:04:16;;;;;;;42.85;22.23;;;-0.80;99.90;;;;;;5070205;28;20044;-62
2024/01/20 06:06:42;;;;;;;37.00;22.23;;;-0.80;99.90;;;;;;5062682;28;20550;-62
2024/01/20 06:09:08;;;;;;;44.42;24.52;;;-0.80;99.90;;;;;;5052307;28;20131;-62
2024/01/20 06:11:33;;;;;;;40.63;23.02;;;-0.80;99.90;;;;;;5070308;28;20028;-62
2024/01/20 06:13:59;;;;;;;46.53;24.23;;;-0.80;99.90;;;;;;5068877;28;20048;-62
2024/01/20 06:16:25;;;;;;;41.33;22.38;;;-0.80;99.90;;;;;;5068771;28;20040;-63
2024/01/20 06:18:50;;;;;;;47.63;23.35;;;-0.80;99.90;;;;;;5069035;28;20048;-62
2024/01/20 06:21:21;;;;;;;45.20;24.17;;;-0.80;99.90;;;;;;5068765;28;20037;-62
2024/01/20 06:23:50;;;;;;;39.33;21.70;;;-0.80;99.90;;;;;;5069083;28;20105;-62
2024/01/20 06:26:17;;;;;;;40.42;22.23;;;-0.80;99.90;;;;;;5069932;28;20078;-62
2024/01/20 06:28:43;;;;;;;41.08;23.10;;;-0.80;99.90;;;;;;5068835;28;20059;-62
2024/01/20 06:31:09;;;;;;;39.05;22.65;;;-0.80;99.90;;;;;;5072391;28;20086;-62
2024/01/20 06:33:35;;;;;;;37.55;22.52;;;-0.80;99.90;;;;;;5074024;28;20100;-63
2024/01/20 06:36:00;;;;;;;41.08;22.27;;;-0.70;99.90;;;;;;5073995;28;20036;-62
2024/01/20 06:38:28;;;;;;;40.85;23.38;;;-0.70;99.90;;;;;;5072489;28;20040;-63
2024/01/20 06:40:54;;;;;;;43.33;23.25;;;-0.70;99.90;;;;;;5072656;28;20036;-62
2024/01/20 06:43:20;;;;;;;39.40;21.33;;;-0.70;99.90;;;;;;5072473;28;20509;-62
2024/01/20 06:45:46;;;;;;;35.75;21.65;;;-0.70;99.90;;;;;;5073668;28;20087;-62
2024/01/20 06:48:12;;;;;;;43.25;22.23;;;-0.70;99.90;;;;;;5072742;28;20112;-62
2024/01/20 06:50:43;;;;;;;40.17;22.52;;;-0.70;99.90;;;;;;5072408;28;20447;-62
2024/01/20 06:53:11;;;;;;;35.75;21.05;;;-0.70;99.90;;;;;;5073925;28;20086;-62
2024/01/20 06:55:38;;;;;;;44.53;22.25;;;-0.70;99.90;;;;;;5072156;28;20072;-62
2024/01/20 06:58:03;;;;;;;44.85;22.98;;;-0.70;99.90;;;;;;5072465;28;20119;-62
2024/01/20 07:00:29;;;;;;;39.45;22.10;;;-0.80;99.90;;;;;;5072296;28;20436;-63
2024/01/20 07:02:55;;;;;;;36.58;21.02;;;-0.70;99.90;;;;;;5073751;28;20033;-61
2024/01/20 07:05:21;;;;;;;43.17;21.63;;;-0.70;99.90;;;;;;5073365;28;20094;-63
2024/01/20 07:07:46;;;;;;;43.40;20.95;;;-0.70;99.90;;;;;;5072000;28;20039;-62
2024/01/20 07:10:14;;;;;;;40.22;20.80;;;-0.70;99.90;;;;;;5073476;28;20037;-62
2024/01/20 07:12:39;;;;;;;36.67;19.40;;;-0.70;99.90;;;;;;5072023;28;20066;-62
2024/01/20 07:15:05;;;;;;;39.65;21.20;;;-0.70;99.90;;;;;;5073381;28;20040;-62
2024/01/20 07:17:31;;;;;;;36.80;20.67;;;-0.70;99.90;;;;;;5072031;28;20523;-62
2024/01/20 07:19:58;;;;;;;39.97;21.40;;;-0.60;99.90;;;;;;5071933;28;20045;-62
2024/01/20 07:22:23;;;;;;;41.00;22.02;;;-0.70;99.90;;;;;;5071866;28;20040;-62
2024/01/20 07:24:49;;;;;;;36.10;21.05;;;-0.70;99.90;;;;;;5071364;28;20048;-62
2024/01/20 07:27:15;;;;;;;37.55;22.15;;;-0.70;99.90;;;;;;5071768;28;20119;-62
2024/01/20 07:29:41;;;;;;;40.17;21.38;;;-0.70;99.90;;;;;;5071491;28;20408;-62
2024/01/20 07:32:07;;;;;;;39.58;21.35;;;-0.70;99.90;;;;;;5073123;28;20048;-61
2024/01/20 07:34:33;;;;;;;41.22;24.13;;;-0.70;99.90;;;;;;5071476;28;20045;-62
2024/01/20 07:36:58;;;;;;;40.03;21.45;;;-0.70;99.90;;;;;;5071590;28;20039;-62
2024/01/20 07:39:24;;;;;;;40.95;22.40;;;-0.60;99.90;;;;;;5071510;28;20499;-62
2024/01/20 07:41:50;;;;;;;36.65;21.05;;;-0.60;99.90;;;;;;5070373;28;20142;-61
2024/01/20 07:44:15;;;;;;;36.30;21.58;;;-0.60;99.90;;;;;;5071070;28;20090;-62
2024/01/20 07:46:41;;;;;;;38.85;21.00;;;-0.60;99.90;;;;;;5071554;28;20072;-62
2024/01/20 07:49:07;;;;;;;40.90;21.52;;;-0.60;99.90;;;;;;5072805;28;20107;-62
2024/01/20 07:51:33;;;;;;;38.17;21.48;;;-0.50;99.90;;;;;;5072493;28;20082;-61
2024/01/20 07:53:58;;;;;;;39.72;21.48;;;-0.50;99.90;;;;;;5071359;28;20048;-63
2024/01/20 07:56:24;;;;;;;39.50;21.05;;;-0.50;99.90;;;;;;5071530;28;20098;-62
2024/01/20 07:58:50;;;;;;;36.35;20.48;;;-0.50;99.90;;;;;;5071015;28;20040;-62
2024/01/20 08:01:17;;;;;;;36.55;20.13;;;-0.40;99.90;;;;;;5071494;28;20454;-62
2024/01/20 08:03:43;;;;;;;39.42;20.40;;;-0.40;99.90;;;;;;5072364;28;20040;-62
2024/01/20 08:06:09;;;;;;;42.70;21.65;;;-0.40;99.90;;;;;;5072379;28;20090;-62
2024/01/20 08:08:34;;;;;;;39.88;20.67;;;-0.30;99.90;;;;;;5070948;28;20080;-62
2024/01/20 08:11:00;;;;;;;41.67;22.35;;;-0.20;99.90;;;;;;5072341;28;20503;-62
2024/01/20 08:13:26;;;;;;;36.15;20.70;;;-0.20;99.90;;;;;;5070901;28;20048;-63
2024/01/20 08:15:52;;;;;;;34.03;20.20;;;-0.20;99.90;;;;;;5054198;28;20043;-62
2024/01/20 08:18:17;;;;;;;33.17;20.08;;;-0.10;99.90;;;;;;5070884;28;20089;-62
2024/01/20 08:20:43;;;;;;;38.28;21.63;;;-0.10;99.90;;;;;;5072167;28;20376;-62
2024/01/20 08:23:08;;;;;;;36.45;19.65;;;0.00;99.90;;;;;;5071865;28;20479;-62
2024/01/20 08:25:34;;;;;;;35.85;20.42;;;0.00;99.90;;;;;;5070541;28;20471;-62
2024/01/20 08:28:00;;;;;;;37.55;20.55;;;0.00;99.90;;;;;;5071836;28;20040;-62
2024/01/20 08:30:25;;;;;;;35.10;20.77;;;0.10;99.90;;;;;;5072135;28;20033;-62
2024/01/20 08:32:51;;;;;;;40.85;21.65;;;0.20;99.90;;;;;;5071873;28;20036;-62
2024/01/20 08:35:16;;;;;;;38.30;19.88;;;0.20;99.90;;;;;;5076913;28;20098;-62
2024/01/20 08:37:42;;;;;;;34.05;19.50;;;0.20;99.90;;;;;;5090579;28;20122;-61
2024/01/20 08:40:08;;;;;;;34.50;19.75;;;0.30;99.90;;;;;;5091974;28;20166;-62
2024/01/20 08:42:34;;;;;;;36.35;20.40;;;0.30;99.90;;;;;;5091892;28;20127;-62
2024/01/20 08:44:59;;;;;;;34.15;19.17;;;0.40;99.90;;;;;;5073190;28;20052;-62
2024/01/20 08:47:25;;;;;;;36.55;20.52;;;0.40;99.90;;;;;;5091829;28;20501;-62
2024/01/20 08:49:54;;;;;;;37.05;19.75;;;0.40;99.90;;;;;;5091628;28;20044;-62
2024/01/20 08:52:19;;;;;;;37.22;20.35;;;0.40;99.90;;;;;;5091544;28;20032;-62
2024/01/20 08:54:45;;;;;;;35.40;18.95;;;0.40;99.90;;;;;;5090191;28;20040;-62
2024/01/20 08:57:11;;;;;;;37.72;19.98;;;0.40;99.90;;;;;;5091335;28;20043;-62
2024/01/20 08:59:36;;;;;;;34.17;18.95;;;0.40;99.90;;;;;;5091604;28;20062;-62
2024/01/20 09:02:03;;;;;;;31.88;18.77;;;0.40;99.90;;;;;;5090034;28;20044;-61
2024/01/20 09:04:29;;;;;;;33.10;19.20;;;0.50;99.90;;;;;;5091493;28;20423;-62
2024/01/20 09:06:55;;;;;;;33.20;18.40;;;0.50;99.90;;;;;;5089736;28;20047;-62
2024/01/20 09:09:21;;;;;;;32.85;18.60;;;0.50;99.90;;;;;;5090056;28;20454;-62
2024/01/20 09:11:47;;;;;;;34.17;19.60;;;0.50;99.90;;;;;;5091540;28;20506;-62
2024/01/20 09:14:13;;;;;;;27.77;16.65;;;0.50;99.90;;;;;;5089861;28;20047;-61
2024/01/20 09:16:39;;;;;;;33.83;18.52;;;0.60;99.90;;;;;;5090190;28;20040;-63
2024/01/20 09:19:04;;;;;;;30.25;17.27;;;0.50;99.90;;;;;;5090988;28;20040;-62
2024/01/20 09:21:30;;;;;;;31.88;17.05;;;0.60;99.90;;;;;;5091121;28;20379;-62
2024/01/20 09:23:56;;;;;;;32.60;17.48;;;0.60;99.90;;;;;;5089692;28;20443;-62
2024/01/20 09:26:21;;;;;;;32.15;16.80;;;0.60;99.90;;;;;;5089799;28;20043;-61
2024/01/20 09:28:47;;;;;;;30.48;16.42;;;0.70;99.90;;;;;;5091263;28;20035;-62
2024/01/20 09:31:13;;;;;;;31.65;17.00;;;0.70;99.90;;;;;;5089504;28;20062;-62
2024/01/20 09:33:38;;;;;;;33.03;18.65;;;0.70;99.90;;;;;;5066625;28;20044;-62
2024/01/20 09:36:04;;;;;;;32.42;17.45;;;0.80;99.90;;;;;;5070756;28;20039;-62
2024/01/20 09:38:30;;;;;;;28.50;16.55;;;0.80;99.90;;;;;;5070680;28;20074;-62
2024/01/20 09:40:57;;;;;;;34.28;17.05;;;0.80;99.90;;;;;;5070632;28;20025;-62
2024/01/20 09:43:23;;;;;;;29.70;16.52;;;0.90;99.90;;;;;;5069613;28;20442;-62
2024/01/20 09:45:49;;;;;;;30.77;16.75;;;0.90;99.90;;;;;;5070833;28;20032;-61
2024/01/20 09:48:15;;;;;;;29.05;16.10;;;0.90;99.90;;;;;;5069384;28;20079;-62
2024/01/20 09:50:41;;;;;;;28.55;16.27;;;0.90;99.90;;;;;;5070476;28;20072;-62
2024/01/20 09:53:14;;;;;;;27.05;16.65;;;0.90;99.90;;;;;;5070658;28;20036;-62
2024/01/20 09:55:42;;;;;;;28.77;16.67;;;0.90;99.90;;;;;;5069259;28;20032;-62
2024/01/20 09:58:11;;;;;;;31.35;17.73;;;1.00;99.90;;;;;;5069092;28;20115;-62
2024/01/20 10:00:38;;;;;;;28.50;16.67;;;1.00;99.90;;;;;;5082443;28;20495;-62
2024/01/20 10:03:05;;;;;;;31.70;17.08;;;1.00;99.90;;;;;;5089282;28;20055;-61
2024/01/20 10:05:32;;;;;;;28.63;16.30;;;1.00;99.90;;;;;;5091316;28;20150;-62
2024/01/20 10:07:58;;;;;;;29.10;16.45;;;1.00;99.90;;;;;;5093708;28;20033;-62
2024/01/20 10:10:24;;;;;;;29.77;16.15;;;1.10;99.90;;;;;;5093203;28;20131;-61
2024/01/20 10:12:50;;;;;;;29.17;17.10;;;1.10;99.90;;;;;;5095076;28;20035;-62
2024/01/20 10:15:22;;;;;;;25.58;15.80;;;1.10;99.90;;;;;;5095019;28;20051;-62
2024/01/20 10:17:48;;;;;;;26.85;15.90;;;1.20;99.90;;;;;;5093418;28;20040;-63
2024/01/20 10:20:21;;;;;;;26.83;16.40;;;1.20;99.90;;;;;;5092382;28;20048;-62
2024/01/20 10:22:48;;;;;;;29.27;16.33;;;1.20;99.90;;;;;;5056356;28;20048;-62
2024/01/20 10:25:18;;;;;;;29.00;16.95;;;1.20;99.90;;;;;;5074024;28;20056;-62
2024/01/20 10:27:48;;;;;;;28.15;16.05;;;1.20;99.90;;;;;;5074329;28;20039;-62
2024/01/20 10:30:20;;;;;;;28.88;16.33;;;1.30;99.90;;;;;;5072693;28;20032;-62
2024/01/20 10:32:46;;;;;;;26.23;15.23;;;1.30;99.90;;;;;;5066324;28;20047;-62
2024/01/20 10:35:12;;;;;;;30.02;15.85;;;1.30;99.90;;;;;;5074053;28;20418;-62
2024/01/20 10:37:44;;;;;;;26.40;15.75;;;1.40;99.90;;;;;;5074030;28;20082;-62
2024/01/20 10:40:14;;;;;;;27.08;16.52;;;1.40;99.90;;;;;;5073091;28;20498;-62
2024/01/20 10:42:47;;;;;;;26.77;16.05;;;1.40;99.90;;;;;;5073787;28;20097;-62
2024/01/20 10:45:17;;;;;;;26.83;16.02;;;1.50;99.90;;;;;;5072393;28;20048;-62
2024/01/20 10:48:07;;;;;;;27.17;15.90;;;1.50;99.90;;;;;;5072793;28;20041;-62
2024/01/20 10:50:35;;;;;;;29.80;16.35;;;1.50;99.90;;;;;;5073474;28;20045;-63
2024/01/20 10:53:03;;;;;;;30.95;16.88;;;1.40;99.90;;;;;;5073750;28;20059;-62
2024/01/20 10:55:31;;;;;;;26.58;15.80;;;1.50;99.90;;;;;;5089066;28;20406;-62
2024/01/20 10:57:58;;;;;;;30.20;17.20;;;1.50;99.90;;;;;;5094111;28;20130;-62
2024/01/20 11:00:24;;;;;;;27.60;17.10;;;1.50;99.90;;;;;;5094129;28;20490;-62
2024/01/20 11:02:50;;;;;;;28.10;16.58;;;1.50;99.90;;;;;;5093971;28;20173;-62
2024/01/20 11:05:22;;;;;;;27.33;16.77;;;1.50;99.90;;;;;;5093761;28;20036;-62
2024/01/20 11:08:24;;;;;;;29.70;17.05;;;1.50;99.90;;;;;;5092414;28;20177;-62
2024/01/20 11:10:52;;;;;;;33.63;17.23;;;1.50;99.90;;;;;;5011382;28;20126;-62
2024/01/20 11:13:17;;;;;;;29.38;17.73;;;1.50;99.90;;;;;;4980454;28;20050;-62
2024/01/20 11:15:49;;;;;;;27.80;17.00;;;1.50;99.90;;;;;;4991592;28;20054;-62
2024/01/20 11:18:19;;;;;;;29.30;17.05;;;1.60;99.90;;;;;;4975207;28;20054;-61
2024/01/20 11:21:00;;;;;;;29.52;17.58;;;1.60;99.90;;;;;;4975471;28;20050;-62
2024/01/20 11:23:27;;;;;;;28.92;17.52;;;1.60;99.90;;;;;;4975008;28;20056;-62
2024/01/20 11:25:54;;;;;;;31.58;18.08;;;1.60;99.90;;;;;;4958886;28;20133;-62
2024/01/20 11:28:30;;;;;;;28.15;16.50;;;1.60;99.90;;;;;;4975237;28;20042;-62
2024/01/20 11:30:55;;;;;;;28.70;16.83;;;1.60;99.90;;;;;;4979590;28;20042;-62
2024/01/20 11:33:22;;;;;;;29.73;17.95;;;1.60;99.90;;;;;;4994611;28;20045;-62
2024/01/20 11:35:48;;;;;;;27.83;16.92;;;1.60;99.90;;;;;;4994303;28;20058;-62
2024/01/20 11:38:15;;;;;;;31.60;17.33;;;1.60;99.90;;;;;;5010970;28;20091;-62
2024/01/20 11:40:40;;;;;;;29.60;17.70;;;1.60;99.90;;;;;;5010600;28;20053;-62
2024/01/20 11:43:08;;;;;;;28.00;17.77;;;1.60;99.90;;;;;;5010881;28;20410;-62
2024/01/20 11:45:33;;;;;;;30.65;18.40;;;1.60;99.90;;;;;;4994092;28;20559;-61
2024/01/20 11:47:59;;;;;;;30.20;17.20;;;1.60;99.90;;;;;;5078619;28;20047;-62
2024/01/20 11:50:25;;;;;;;29.83;17.20;;;1.60;99.90;;;;;;5092002;28;20048;-62
2024/01/20 11:52:51;;;;;;;29.80;17.05;;;1.70;99.90;;;;;;5092697;28;20032;-62
2024/01/20 11:55:17;;;;;;;31.33;16.90;;;1.70;99.90;;;;;;5092938;28;20028;-63
2024/01/20 11:57:43;;;;;;;29.88;18.10;;;1.80;99.90;;;;;;5092605;28;20098;-63
2024/01/20 12:00:11;;;;;;;27.50;16.55;;;1.80;99.90;;;;;;5092677;28;20032;-62
2024/01/20 12:02:37;;;;;;;32.20;18.33;;;1.80;99.90;;;;;;5091221;28;20040;-62
2024/01/20 12:05:03;;;;;;;28.90;17.20;;;1.80;99.90;;;;;;5092689;28;20111;-62
2024/01/20 12:07:29;;;;;;;28.05;17.27;;;1.90;99.90;;;;;;5093104;28;20040;-62
2024/01/20 12:09:56;;;;;;;28.27;16.88;;;1.90;99.90;;;;;;5092306;28;20117;-62
2024/01/20 12:12:22;;;;;;;29.92;17.33;;;1.90;99.90;;;;;;5092582;28;20512;-62
2024/01/20 12:14:49;;;;;;;29.23;17.08;;;2.00;99.90;;;;;;5091157;28;20395;-62
2024/01/20 12:17:15;;;;;;;27.83;15.70;;;2.00;99.90;;;;;;5092390;28;20496;-62
2024/01/20 12:19:41;;;;;;;31.85;16.20;;;2.00;99.90;;;;;;5092362;28;20063;-62
2024/01/20 12:22:09;;;;;;;26.27;15.77;;;2.00;99.90;;;;;;5092418;28;20024;-62
2024/01/20 12:24:35;;;;;;;24.02;15.35;;;2.00;99.90;;;;;;5090783;28;20087;-62
2024/01/20 12:27:04;;;;;;;27.63;16.88;;;2.10;99.90;;;;;;5090892;28;20119;-62
2024/01/20 12:29:31;;;;;;;27.58;16.00;;;2.10;99.90;;;;;;5090407;28;20101;-62